sensor_id;sensor_type;location;lat;lon;timestamp;pressure;altitude;pressure_sealevel;temperature;humidity
74578;BME280;63173;49.086;33.418;2022-12-07T01:28:41;101250.88;;;-3.92;58.62
74578;BME280;63173;49.086;33.418;2022-12-07T01:31:12;101249.56;;;-3.88;58.74
74578;BME280;63173;49.086;33.418;2022-12-07T01:33:38;101255.84;;;-3.81;58.78
74578;BME280;63173;49.086;33.418;2022-12-07T01:36:05;101247.38;;;-3.85;59.56
74578;BME280;63173;49.086;33.418;2022-12-07T01:38:32;101248.91;;;-3.90;59.53
74578;BME280;63173;49.086;33.418;2022-12-07T01:40:58;101246.53;;;-3.77;60.49
74578;BME280;63173;49.086;33.418;2022-12-07T01:43:27;101247.69;;;-3.71;60.45
74578;BME280;63173;49.086;33.418;2022-12-07T01:45:53;101240.03;;;-3.74;61.17
74578;BME280;63173;49.086;33.418;2022-12-07T01:48:23;101232.03;;;-3.66;61.90
74578;BME280;63173;49.086;33.418;2022-12-07T01:50:51;101236.38;;;-3.65;62.28
74578;BME280;63173;49.086;33.418;2022-12-07T01:53:19;101222.25;;;-3.66;62.59
74578;BME280;63173;49.086;33.418;2022-12-07T01:55:46;101217.28;;;-3.69;64.86
74578;BME280;63173;49.086;33.418;2022-12-07T01:58:15;101220.56;;;-3.59;65.03
74578;BME280;63173;49.086;33.418;2022-12-07T02:00:41;101216.94;;;-3.66;65.61
74578;BME280;63173;49.086;33.418;2022-12-07T02:03:13;101215.59;;;-3.54;65.37
74578;BME280;63173;49.086;33.418;2022-12-07T02:05:41;101211.44;;;-3.56;66.21
74578;BME280;63173;49.086;33.418;2022-12-07T02:08:07;101207.66;;;-3.62;66.63
74578;BME280;63173;49.086;33.418;2022-12-07T02:10:33;101193.03;;;-3.58;66.22
74578;BME280;63173;49.086;33.418;2022-12-07T02:13:09;101199.09;;;-3.49;65.75
74578;BME280;63173;49.086;33.418;2022-12-07T02:21:40;101185.88;;;-3.57;66.86
74578;BME280;63173;49.086;33.418;2022-12-07T02:24:30;101191.97;;;-3.49;66.55
74578;BME280;63173;49.086;33.418;2022-12-07T02:30:10;101188.00;;;-3.53;67.25
74578;BME280;63173;49.086;33.418;2022-12-07T02:35:06;101192.50;;;-3.53;65.92
74578;BME280;63173;49.086;33.418;2022-12-07T02:38:08;101186.88;;;-3.58;65.71
74578;BME280;63173;49.086;33.418;2022-12-07T02:40:43;101188.22;;;-3.62;65.09
74578;BME280;63173;49.086;33.418;2022-12-07T02:43:19;101187.22;;;-3.61;65.00
74578;BME280;63173;49.086;33.418;2022-12-07T02:45:46;101182.72;;;-3.61;65.13
74578;BME280;63173;49.086;33.418;2022-12-07T02:48:16;101186.63;;;-3.71;65.45
74578;BME280;63173;49.086;33.418;2022-12-07T02:50:47;101184.13;;;-3.73;65.18
74578;BME280;63173;49.086;33.418;2022-12-07T02:53:48;101175.63;;;-3.68;65.02
74578;BME280;63173;49.086;33.418;2022-12-07T03:07:39;101186.34;;;-3.85;65.73
74578;BME280;63173;49.086;33.418;2022-12-07T03:10:10;101183.88;;;-3.86;65.66
74578;BME280;63173;49.086;33.418;2022-12-07T03:12:45;101181.34;;;-3.88;65.98
74578;BME280;63173;49.086;33.418;2022-12-07T03:15:43;101176.88;;;-3.87;65.74
74578;BME280;63173;49.086;33.418;2022-12-07T03:18:12;101183.53;;;-3.91;65.92
74578;BME280;63173;49.086;33.418;2022-12-07T03:20:43;101172.25;;;-3.85;65.43
74578;BME280;63173;49.086;33.418;2022-12-07T03:23:10;101179.53;;;-3.87;66.05
74578;BME280;63173;49.086;33.418;2022-12-07T03:25:47;101180.22;;;-3.93;66.60
74578;BME280;63173;49.086;33.418;2022-12-07T03:28:16;101188.84;;;-3.91;66.68
74578;BME280;63173;49.086;33.418;2022-12-07T03:30:47;101179.84;;;-3.82;66.09
74578;BME280;63173;49.086;33.418;2022-12-07T03:33:24;101175.19;;;-3.80;66.06
74578;BME280;63173;49.086;33.418;2022-12-07T03:36:00;101172.25;;;-3.85;66.45
74578;BME280;63173;49.086;33.418;2022-12-07T03:38:38;101177.84;;;-3.80;66.04
74578;BME280;63173;49.086;33.418;2022-12-07T03:43:34;101178.19;;;-3.83;66.33
74578;BME280;63173;49.086;33.418;2022-12-07T03:48:40;101185.69;;;-3.87;66.67
74578;BME280;63173;49.086;33.418;2022-12-07T03:51:23;101176.59;;;-3.92;67.07
74578;BME280;63173;49.086;33.418;2022-12-07T03:54:14;101171.75;;;-3.89;66.76
74578;BME280;63173;49.086;33.418;2022-12-07T03:56:42;101171.56;;;-3.87;66.92
74578;BME280;63173;49.086;33.418;2022-12-07T03:59:08;101169.41;;;-3.84;66.76
74578;BME280;63173;49.086;33.418;2022-12-07T04:01:34;101165.75;;;-3.83;66.95
74578;BME280;63173;49.086;33.418;2022-12-07T04:04:00;101157.16;;;-3.85;67.29
74578;BME280;63173;49.086;33.418;2022-12-07T04:06:25;101158.59;;;-3.82;67.70
74578;BME280;63173;49.086;33.418;2022-12-07T04:08:50;101158.09;;;-3.77;67.10
74578;BME280;63173;49.086;33.418;2022-12-07T04:11:16;101160.56;;;-3.76;68.51
74578;BME280;63173;49.086;33.418;2022-12-07T04:13:41;101165.22;;;-3.78;68.54
74578;BME280;63173;49.086;33.418;2022-12-07T04:16:25;101151.09;;;-3.70;67.88
74578;BME280;63173;49.086;33.418;2022-12-07T04:18:51;101155.44;;;-3.77;68.66
74578;BME280;63173;49.086;33.418;2022-12-07T04:21:16;101155.59;;;-3.71;68.38
74578;BME280;63173;49.086;33.418;2022-12-07T04:23:42;101148.78;;;-3.73;68.76
74578;BME280;63173;49.086;33.418;2022-12-07T04:26:07;101148.44;;;-3.70;69.56
74578;BME280;63173;49.086;33.418;2022-12-07T04:28:32;101150.69;;;-3.59;69.62
74578;BME280;63173;49.086;33.418;2022-12-07T04:30:58;101152.88;;;-3.63;70.51
74578;BME280;63173;49.086;33.418;2022-12-07T04:33:23;101152.38;;;-3.58;71.11
74578;BME280;63173;49.086;33.418;2022-12-07T04:35:49;101147.53;;;-3.55;72.16
74578;BME280;63173;49.086;33.418;2022-12-07T04:38:14;101143.53;;;-3.51;71.93
74578;BME280;63173;49.086;33.418;2022-12-07T04:40:40;101144.03;;;-3.55;72.77
74578;BME280;63173;49.086;33.418;2022-12-07T04:43:05;101156.50;;;-3.56;73.77
74578;BME280;63173;49.086;33.418;2022-12-07T04:45:31;101144.91;;;-3.63;73.92
74578;BME280;63173;49.086;33.418;2022-12-07T04:47:56;101154.66;;;-3.55;73.96
74578;BME280;63173;49.086;33.418;2022-12-07T04:50:21;101145.94;;;-3.64;75.21
74578;BME280;63173;49.086;33.418;2022-12-07T04:52:47;101142.47;;;-3.72;76.33
74578;BME280;63173;49.086;33.418;2022-12-07T04:55:12;101157.41;;;-3.71;76.86
74578;BME280;63173;49.086;33.418;2022-12-07T04:57:38;101148.41;;;-3.62;76.87
74578;BME280;63173;49.086;33.418;2022-12-07T05:00:04;101148.91;;;-3.67;77.05
74578;BME280;63173;49.086;33.418;2022-12-07T05:02:29;101152.28;;;-3.73;78.35
74578;BME280;63173;49.086;33.418;2022-12-07T05:04:55;101151.78;;;-3.76;78.80
74578;BME280;63173;49.086;33.418;2022-12-07T05:07:20;101144.84;;;-3.86;80.29
74578;BME280;63173;49.086;33.418;2022-12-07T05:09:45;101148.50;;;-3.78;80.46
74578;BME280;63173;49.086;33.418;2022-12-07T05:12:11;101144.53;;;-3.83;81.74
74578;BME280;63173;49.086;33.418;2022-12-07T05:14:36;101152.50;;;-3.83;81.77
74578;BME280;63173;49.086;33.418;2022-12-07T05:17:02;101155.81;;;-3.80;80.82
74578;BME280;63173;49.086;33.418;2022-12-07T05:19:27;101148.97;;;-3.75;80.20
74578;BME280;63173;49.086;33.418;2022-12-07T05:21:53;101144.84;;;-3.77;79.96
74578;BME280;63173;49.086;33.418;2022-12-07T05:24:18;101141.34;;;-3.78;78.80
74578;BME280;63173;49.086;33.418;2022-12-07T05:26:44;101125.22;;;-3.46;77.36
74578;BME280;63173;49.086;33.418;2022-12-07T05:29:15;101131.97;;;-3.58;76.71
74578;BME280;63173;49.086;33.418;2022-12-07T05:31:41;101117.88;;;-3.66;76.33
74578;BME280;63173;49.086;33.418;2022-12-07T05:34:07;101127.44;;;-3.57;75.23
74578;BME280;63173;49.086;33.418;2022-12-07T05:36:32;101120.50;;;-3.58;75.21
74578;BME280;63173;49.086;33.418;2022-12-07T05:38:58;101118.50;;;-3.34;74.38
74578;BME280;63173;49.086;33.418;2022-12-07T05:41:24;101114.78;;;-3.47;74.63
74578;BME280;63173;49.086;33.418;2022-12-07T05:44:08;101117.63;;;-3.49;74.29
74578;BME280;63173;49.086;33.418;2022-12-07T05:46:33;101123.22;;;-3.44;73.58
74578;BME280;63173;49.086;33.418;2022-12-07T05:48:59;101125.00;;;-3.36;73.67
74578;BME280;63173;49.086;33.418;2022-12-07T05:51:25;101117.38;;;-3.39;74.04
74578;BME280;63173;49.086;33.418;2022-12-07T05:53:51;101121.59;;;-3.45;73.67
74578;BME280;63173;49.086;33.418;2022-12-07T05:56:16;101119.50;;;-3.35;73.41
74578;BME280;63173;49.086;33.418;2022-12-07T05:58:42;101113.94;;;-3.48;73.67
74578;BME280;63173;49.086;33.418;2022-12-07T06:01:26;101105.31;;;-3.50;74.35
74578;BME280;63173;49.086;33.418;2022-12-07T06:03:51;101102.28;;;-3.39;74.46
74578;BME280;63173;49.086;33.418;2022-12-07T10:13:53;100966.13;;;-1.88;69.13
74578;BME280;63173;49.086;33.418;2022-12-07T10:18:51;100970.88;;;-1.84;68.06
74578;BME280;63173;49.086;33.418;2022-12-07T10:21:19;100959.97;;;-1.68;67.91
74578;BME280;63173;49.086;33.418;2022-12-07T10:27:11;100968.97;;;-1.90;68.96
74578;BME280;63173;49.086;33.418;2022-12-07T10:29:22;100955.53;;;-1.82;68.63
74578;BME280;63173;49.086;33.418;2022-12-07T10:31:56;100962.88;;;-1.84;68.25
74578;BME280;63173;49.086;33.418;2022-12-07T10:34:28;100945.13;;;-1.77;68.99
74578;BME280;63173;49.086;33.418;2022-12-07T10:37:14;100951.13;;;-1.68;67.87
74578;BME280;63173;49.086;33.418;2022-12-07T10:39:52;100945.97;;;-1.49;67.10
74578;BME280;63173;49.086;33.418;2022-12-07T10:42:26;100946.16;;;-1.78;68.67
74578;BME280;63173;49.086;33.418;2022-12-07T10:47:51;100935.50;;;-1.78;68.45
74578;BME280;63173;49.086;33.418;2022-12-07T10:53:32;100931.50;;;-1.67;68.72
74578;BME280;63173;49.086;33.418;2022-12-07T11:01:57;100916.91;;;-1.93;69.23
74578;BME280;63173;49.086;33.418;2022-12-07T11:18:40;100921.56;;;-1.52;68.71
74578;BME280;63173;49.086;33.418;2022-12-07T11:24:21;100920.09;;;-1.82;70.30
74578;BME280;63173;49.086;33.418;2022-12-07T11:27:20;100919.31;;;-1.55;71.20
74578;BME280;63173;49.086;33.418;2022-12-07T11:29:55;100911.78;;;-1.73;70.75
74578;BME280;63173;49.086;33.418;2022-12-07T11:35:17;100917.66;;;-1.56;70.51
74578;BME280;63173;49.086;33.418;2022-12-07T11:37:46;100910.44;;;-1.35;69.89
74578;BME280;63173;49.086;33.418;2022-12-07T11:42:49;100907.00;;;-1.56;71.90
74578;BME280;63173;49.086;33.418;2022-12-07T11:45:22;100904.16;;;-1.76;72.70
74578;BME280;63173;49.086;33.418;2022-12-07T11:48:00;100899.34;;;-1.87;74.19
74578;BME280;63173;49.086;33.418;2022-12-07T11:50:40;100905.19;;;-1.77;73.76
74578;BME280;63173;49.086;33.418;2022-12-07T11:58:38;100897.75;;;-1.81;74.54
74578;BME280;63173;49.086;33.418;2022-12-07T12:06:44;100897.59;;;-1.80;75.12
74578;BME280;63173;49.086;33.418;2022-12-07T16:12:43;100824.41;;;-3.11;87.41
74578;BME280;63173;49.086;33.418;2022-12-07T16:15:09;100824.00;;;-3.08;87.60
74578;BME280;63173;49.086;33.418;2022-12-07T16:17:34;100826.31;;;-3.19;86.96
74578;BME280;63173;49.086;33.418;2022-12-07T16:20:00;100822.72;;;-3.12;86.63
74578;BME280;63173;49.086;33.418;2022-12-07T16:22:25;100813.47;;;-3.16;86.90
74578;BME280;63173;49.086;33.418;2022-12-07T16:24:51;100813.31;;;-3.14;86.85
74578;BME280;63173;49.086;33.418;2022-12-07T16:27:16;100815.41;;;-3.10;87.46
74578;BME280;63173;49.086;33.418;2022-12-07T16:29:42;100808.34;;;-3.17;87.83
74578;BME280;63173;49.086;33.418;2022-12-07T16:32:07;100811.59;;;-3.22;87.48
74578;BME280;63173;49.086;33.418;2022-12-07T16:34:33;100817.50;;;-3.05;87.49
74578;BME280;63173;49.086;33.418;2022-12-07T16:36:58;100826.22;;;-3.11;88.05
74578;BME280;63173;49.086;33.418;2022-12-07T16:39:24;100817.69;;;-3.07;87.63
74578;BME280;63173;49.086;33.418;2022-12-07T16:41:50;100817.50;;;-3.05;87.41
74578;BME280;63173;49.086;33.418;2022-12-07T16:44:15;100818.06;;;-3.10;87.72
74578;BME280;63173;49.086;33.418;2022-12-07T16:46:41;100814.28;;;-3.01;88.04
74578;BME280;63173;49.086;33.418;2022-12-07T16:49:11;100810.03;;;-3.16;88.42
74578;BME280;63173;49.086;33.418;2022-12-07T16:51:37;100801.91;;;-3.08;88.10
74578;BME280;63173;49.086;33.418;2022-12-07T16:54:03;100810.81;;;-3.16;87.64
74578;BME280;63173;49.086;33.418;2022-12-07T16:56:29;100808.28;;;-3.24;87.89
74578;BME280;63173;49.086;33.418;2022-12-07T16:58:54;100811.28;;;-3.27;88.08
74578;BME280;63173;49.086;33.418;2022-12-07T17:01:22;100801.94;;;-3.23;87.85
74578;BME280;63173;49.086;33.418;2022-12-07T17:03:49;100804.59;;;-3.23;88.34
74578;BME280;63173;49.086;33.418;2022-12-07T17:06:21;100810.75;;;-3.22;88.14
74578;BME280;63173;49.086;33.418;2022-12-07T17:08:48;100809.84;;;-3.15;87.83
74578;BME280;63173;49.086;33.418;2022-12-07T17:11:19;100805.25;;;-3.21;88.04
74578;BME280;63173;49.086;33.418;2022-12-07T17:13:45;100802.75;;;-3.08;87.42
74578;BME280;63173;49.086;33.418;2022-12-07T17:16:30;100797.91;;;-3.19;87.93
74578;BME280;63173;49.086;33.418;2022-12-07T17:18:56;100802.31;;;-3.11;88.35
74578;BME280;63173;49.086;33.418;2022-12-07T17:21:21;100819.34;;;-3.06;87.84
74578;BME280;63173;49.086;33.418;2022-12-07T17:23:47;100816.59;;;-3.12;87.87
74578;BME280;63173;49.086;33.418;2022-12-07T17:26:19;100812.53;;;-3.08;87.73
74578;BME280;63173;49.086;33.418;2022-12-07T17:28:45;100811.63;;;-3.01;87.83
74578;BME280;63173;49.086;33.418;2022-12-07T17:31:13;100816.03;;;-3.08;87.80
74578;BME280;63173;49.086;33.418;2022-12-07T17:33:39;100817.41;;;-3.12;88.81
74578;BME280;63173;49.086;33.418;2022-12-07T17:38:43;100826.94;;;-3.03;87.45
74578;BME280;63173;49.086;33.418;2022-12-07T17:41:12;100820.06;;;-3.12;88.00
74578;BME280;63173;49.086;33.418;2022-12-07T17:43:59;100832.25;;;-3.03;88.50
74578;BME280;63173;49.086;33.418;2022-12-07T17:46:24;100824.09;;;-3.01;87.88
74578;BME280;63173;49.086;33.418;2022-12-07T17:48:50;100838.34;;;-2.88;87.93
74578;BME280;63173;49.086;33.418;2022-12-07T17:51:15;100827.47;;;-2.93;88.79
74578;BME280;63173;49.086;33.418;2022-12-07T17:53:59;100826.75;;;-3.01;89.02
74578;BME280;63173;49.086;33.418;2022-12-07T17:56:25;100831.25;;;-3.02;88.92
74578;BME280;63173;49.086;33.418;2022-12-07T17:58:50;100822.81;;;-3.05;89.11
74578;BME280;63173;49.086;33.418;2022-12-07T18:01:16;100820.41;;;-3.00;88.62
74578;BME280;63173;49.086;33.418;2022-12-07T18:03:41;100825.09;;;-3.02;88.90
74578;BME280;63173;49.086;33.418;2022-12-07T18:06:06;100823.53;;;-2.97;88.66
74578;BME280;63173;49.086;33.418;2022-12-07T18:08:34;100814.56;;;-2.96;89.21
74578;BME280;63173;49.086;33.418;2022-12-07T22:36:51;100793.38;;;-2.26;95.58
74578;BME280;63173;49.086;33.418;2022-12-07T22:39:17;100796.53;;;-2.16;95.15
74578;BME280;63173;49.086;33.418;2022-12-07T22:41:43;100807.56;;;-2.19;94.29
74578;BME280;63173;49.086;33.418;2022-12-07T22:44:08;100808.00;;;-2.15;93.97
74578;BME280;63173;49.086;33.418;2022-12-07T22:46:34;100806.38;;;-2.16;94.08
74578;BME280;63173;49.086;33.418;2022-12-07T22:49:00;100807.81;;;-2.14;94.83
74578;BME280;63173;49.086;33.418;2022-12-07T22:51:29;100807.47;;;-2.04;93.46
74578;BME280;63173;49.086;33.418;2022-12-07T22:53:56;100796.09;;;-2.19;94.49
74578;BME280;63173;49.086;33.418;2022-12-07T22:56:24;100797.47;;;-2.23;94.23
74578;BME280;63173;49.086;33.418;2022-12-07T22:58:50;100804.91;;;-2.19;94.40
74578;BME280;63173;49.086;33.418;2022-12-07T23:01:17;100811.41;;;-2.21;94.52
74578;BME280;63173;49.086;33.418;2022-12-07T23:03:44;100813.00;;;-2.27;94.59
74578;BME280;63173;49.086;33.418;2022-12-07T23:06:14;100813.22;;;-2.28;94.38
74578;BME280;63173;49.086;33.418;2022-12-07T23:08:40;100804.47;;;-2.22;95.02
74578;BME280;63173;49.086;33.418;2022-12-07T23:11:11;100800.59;;;-2.20;94.86
74578;BME280;63173;49.086;33.418;2022-12-07T23:13:57;100793.63;;;-2.21;93.94
74578;BME280;63173;49.086;33.418;2022-12-07T23:16:23;100785.22;;;-2.24;95.33
74578;BME280;63173;49.086;33.418;2022-12-07T23:18:49;100783.41;;;-2.17;94.38
74578;BME280;63173;49.086;33.418;2022-12-07T23:21:15;100788.94;;;-2.19;95.44
74578;BME280;63173;49.086;33.418;2022-12-07T23:23:40;100793.69;;;-2.14;94.75
74578;BME280;63173;49.086;33.418;2022-12-07T23:26:07;100794.50;;;-2.14;94.34
74578;BME280;63173;49.086;33.418;2022-12-07T23:28:34;100790.75;;;-2.19;94.66
74578;BME280;63173;49.086;33.418;2022-12-07T23:31:20;100794.66;;;-2.22;94.90
74578;BME280;63173;49.086;33.418;2022-12-07T23:33:46;100788.66;;;-2.03;96.07
74578;BME280;63173;49.086;33.418;2022-12-07T23:36:15;100769.75;;;-2.14;96.11
74578;BME280;63173;49.086;33.418;2022-12-07T23:38:43;100783.22;;;-2.16;96.63
74578;BME280;63173;49.086;33.418;2022-12-07T23:41:12;100797.34;;;-2.15;96.37
74578;BME280;63173;49.086;33.418;2022-12-07T23:43:38;100797.13;;;-2.20;95.49
74578;BME280;63173;49.086;33.418;2022-12-07T23:46:12;100795.56;;;-2.08;95.85
74578;BME280;63173;49.086;33.418;2022-12-07T23:48:39;100813.53;;;-2.17;95.61
74578;BME280;63173;49.086;33.418;2022-12-07T23:51:05;100815.34;;;-2.17;95.57
74578;BME280;63173;49.086;33.418;2022-12-07T23:53:36;100811.34;;;-2.07;95.32
74578;BME280;63173;49.086;33.418;2022-12-07T23:56:02;100804.91;;;-2.19;95.54
74578;BME280;63173;49.086;33.418;2022-12-07T23:58:28;100806.81;;;-2.13;95.83
